createdAt,value
2017-11-01T00:01:49.119Z,10.10
2017-11-01T00:04:17.239Z,10.20
2017-11-01T00:06:46.053Z,10.20
2017-11-01T00:09:14.919Z,10.10
2017-11-01T00:11:42.988Z,10.10
2017-11-01T00:14:11.083Z,10.20
2017-11-01T00:16:39.146Z,10.30
2017-11-01T00:19:07.238Z,10.20
2017-11-01T00:21:35.315Z,10.20
2017-11-01T00:24:03.391Z,10.30
2017-11-01T00:26:31.476Z,10.30
2017-11-01T00:28:59.548Z,10.30
2017-11-01T00:31:27.622Z,10.40
2017-11-01T00:33:55.744Z,10.40
2017-11-01T00:36:23.851Z,10.40
2017-11-01T00:38:51.925Z,10.50
2017-11-01T00:41:20.000Z,10.40
2017-11-01T00:43:48.081Z,10.50
2017-11-01T00:46:16.150Z,10.40
2017-11-01T00:48:44.211Z,10.40
2017-11-01T00:51:12.312Z,10.30
2017-11-01T00:53:40.363Z,10.30
2017-11-01T00:56:08.443Z,10.40
2017-11-01T00:58:36.498Z,10.40
2017-11-01T01:01:04.704Z,10.40
2017-11-01T01:03:33.527Z,10.50
2017-11-01T01:06:01.583Z,10.40
2017-11-01T01:08:29.667Z,10.50
2017-11-01T01:10:57.754Z,10.50
2017-11-01T01:13:25.847Z,10.50
2017-11-01T01:15:53.918Z,10.40
2017-11-01T01:18:22.006Z,10.30
2017-11-01T01:20:50.082Z,10.30
2017-11-01T01:23:18.905Z,10.30
2017-11-01T01:25:46.994Z,10.30
2017-11-01T01:28:15.091Z,10.30
2017-11-01T01:30:43.171Z,10.30
2017-11-01T01:33:11.254Z,10.20
2017-11-01T01:35:39.328Z,10.20
2017-11-01T01:38:08.207Z,10.30
2017-11-01T01:40:36.270Z,10.30
2017-11-01T01:43:04.343Z,10.30
2017-11-01T01:45:32.423Z,10.40
2017-11-01T01:48:00.488Z,10.40
2017-11-01T01:50:28.602Z,10.30
2017-11-01T01:52:56.668Z,10.30
2017-11-01T01:55:24.746Z,10.40
2017-11-01T01:57:52.828Z,10.40
2017-11-01T02:00:20.919Z,10.50
2017-11-01T02:02:48.992Z,10.40
2017-11-01T02:05:17.083Z,10.30
2017-11-01T02:07:45.159Z,10.40
2017-11-01T02:10:13.260Z,10.40
2017-11-01T02:12:42.154Z,10.40
2017-11-01T02:15:10.971Z,10.30
2017-11-01T02:17:39.131Z,10.30
2017-11-01T02:20:07.226Z,10.30
2017-11-01T02:22:35.288Z,10.40
2017-11-01T02:25:03.387Z,10.40
2017-11-01T02:27:31.486Z,10.40
2017-11-01T02:30:00.323Z,10.40
2017-11-01T02:32:28.402Z,10.30
2017-11-01T02:34:56.479Z,10.40
2017-11-01T02:37:24.549Z,10.50
2017-11-01T02:39:52.639Z,10.50
2017-11-01T02:42:20.712Z,10.40
2017-11-01T02:44:48.783Z,10.50
2017-11-01T02:47:18.364Z,10.50
2017-11-01T02:49:46.433Z,10.50
2017-11-01T02:52:14.514Z,10.50
2017-11-01T02:54:43.350Z,10.50
2017-11-01T02:57:11.427Z,10.40
2017-11-01T02:59:39.547Z,10.50
2017-11-01T03:02:07.615Z,10.50
2017-11-01T03:04:36.450Z,10.40
2017-11-01T03:07:04.551Z,10.40
2017-11-01T03:09:32.598Z,10.40
2017-11-01T03:12:00.682Z,10.50
2017-11-01T03:14:28.775Z,10.50
2017-11-01T03:16:57.630Z,10.60
2017-11-01T03:19:25.701Z,10.50
2017-11-01T03:21:53.754Z,10.60
2017-11-01T03:24:21.874Z,10.60
2017-11-01T03:26:49.942Z,10.50
2017-11-01T03:29:17.999Z,10.50
2017-11-01T03:31:46.070Z,10.50
2017-11-01T03:34:14.154Z,10.50
2017-11-01T03:36:42.232Z,10.50
2017-11-01T03:39:10.298Z,10.40
2017-11-01T03:41:38.391Z,10.50
2017-11-01T03:44:07.218Z,10.60
2017-11-01T03:46:35.293Z,10.50
2017-11-01T03:49:03.357Z,10.60
2017-11-01T03:51:31.424Z,10.60
2017-11-01T03:53:59.507Z,10.60
2017-11-01T03:56:27.566Z,10.70
2017-11-01T03:58:55.657Z,10.70
2017-11-01T04:01:23.715Z,10.80
2017-11-01T04:03:51.783Z,10.80
2017-11-01T04:06:19.866Z,10.70
2017-11-01T04:08:47.993Z,10.80
2017-11-01T04:11:16.051Z,10.80
2017-11-01T04:13:44.147Z,10.80
2017-11-01T04:16:12.990Z,10.90
2017-11-01T04:18:46.640Z,10.80
2017-11-01T04:21:15.475Z,10.90
2017-11-01T04:23:43.575Z,10.90
2017-11-01T04:26:11.642Z,10.90
2017-11-01T04:28:39.716Z,11.00
2017-11-01T04:31:07.805Z,10.90
2017-11-01T04:33:35.911Z,10.80
2017-11-01T04:36:03.991Z,10.70
2017-11-01T04:38:32.067Z,10.80
2017-11-01T04:41:00.139Z,10.80
2017-11-01T04:43:28.289Z,10.80
2017-11-01T04:45:56.324Z,10.70
2017-11-01T04:48:26.272Z,10.80
2017-11-01T04:50:54.342Z,10.80
2017-11-01T04:53:26.118Z,10.90
2017-11-01T04:55:54.179Z,10.90
2017-11-01T04:58:23.019Z,11.00
2017-11-01T05:00:51.102Z,10.90
2017-11-01T05:03:22.158Z,11.00
2017-11-01T05:05:50.232Z,11.00
2017-11-01T05:08:23.870Z,11.10
2017-11-01T05:10:54.886Z,11.00
2017-11-01T05:13:22.962Z,11.00
2017-11-01T05:15:51.795Z,11.00
2017-11-01T05:18:19.867Z,11.00
2017-11-01T05:20:47.935Z,11.10
2017-11-01T05:23:16.015Z,11.00
2017-11-01T05:25:47.041Z,11.00
2017-11-01T05:28:15.916Z,11.00
2017-11-01T05:30:44.001Z,10.90
2017-11-01T05:33:12.075Z,10.90
2017-11-01T05:35:40.163Z,10.90
2017-11-01T05:38:08.235Z,11.00
2017-11-01T05:40:36.330Z,10.90
2017-11-01T05:43:04.391Z,10.90
2017-11-01T05:45:32.459Z,11.00
2017-11-01T05:48:00.532Z,11.10
2017-11-01T05:50:28.615Z,11.10
2017-11-01T05:52:56.687Z,11.10
2017-11-01T05:55:24.763Z,11.10
2017-11-01T05:57:52.830Z,11.10
2017-11-01T06:00:20.899Z,11.00
2017-11-01T06:02:48.957Z,11.00
2017-11-01T06:05:17.059Z,11.00
2017-11-01T06:07:45.911Z,11.10
2017-11-01T06:10:14.003Z,11.00
2017-11-01T06:12:42.849Z,11.00
2017-11-01T06:15:10.945Z,11.00
2017-11-01T06:17:39.019Z,11.10
2017-11-01T06:20:07.091Z,11.10
2017-11-01T06:22:35.163Z,11.00
2017-11-01T06:25:03.250Z,11.00
2017-11-01T06:27:31.314Z,11.00
2017-11-01T06:29:59.394Z,11.00
2017-11-01T06:32:27.474Z,11.00
2017-11-01T06:34:55.537Z,11.00
2017-11-01T06:37:24.545Z,10.90
2017-11-01T06:40:10.219Z,11.00
2017-11-01T06:42:39.687Z,11.00
2017-11-01T06:45:16.838Z,11.10
2017-11-01T07:08:52.414Z,11.10
2017-11-01T07:14:25.520Z,11.00
2017-11-01T07:20:21.677Z,11.10
2017-11-01T07:43:49.876Z,11.20
2017-11-01T07:46:23.538Z,11.30
2017-11-01T07:48:57.489Z,11.30
2017-11-01T07:51:31.542Z,11.30
2017-11-01T07:54:05.445Z,11.30
2017-11-01T07:56:39.447Z,11.30
2017-11-01T07:59:18.328Z,11.30
2017-11-01T08:01:52.195Z,11.30
2017-11-01T08:04:26.572Z,11.30
2017-11-01T08:07:01.082Z,11.20
2017-11-01T08:09:35.150Z,11.20
2017-11-01T08:12:09.069Z,11.20
2017-11-01T08:14:43.070Z,11.20
2017-11-01T08:17:16.973Z,11.20
2017-11-01T08:19:54.508Z,11.30
2017-11-01T08:22:29.216Z,11.30
2017-11-01T08:25:04.961Z,11.30
2017-11-01T08:27:38.780Z,11.40
2017-11-01T08:30:12.584Z,11.40
2017-11-01T08:32:47.096Z,11.30
2017-11-01T08:35:21.565Z,11.30
2017-11-01T08:37:55.478Z,11.30
2017-11-01T08:40:31.858Z,11.20
2017-11-01T08:43:05.618Z,11.10
2017-11-01T08:45:40.454Z,11.20
2017-11-01T08:48:15.003Z,11.30
2017-11-01T08:50:48.573Z,11.20
2017-11-01T08:53:22.371Z,11.20
2017-11-01T08:55:55.917Z,11.10
2017-11-01T08:58:29.587Z,11.10
2017-11-01T09:01:03.414Z,11.20
2017-11-01T09:03:37.117Z,11.20
2017-11-01T09:06:10.947Z,11.20
2017-11-01T09:08:44.785Z,11.30
2017-11-01T09:11:19.267Z,11.50
2017-11-01T09:13:52.983Z,11.50
2017-11-01T09:16:28.640Z,11.60
2017-11-01T09:19:03.203Z,11.80
2017-11-01T09:21:37.286Z,11.80
2017-11-01T09:24:12.124Z,11.90
2017-11-01T09:26:45.982Z,11.80
2017-11-01T09:29:19.755Z,11.80
2017-11-01T09:31:55.310Z,11.80
2017-11-01T09:34:28.917Z,11.90
2017-11-01T09:37:03.355Z,12.10
2017-11-01T09:39:37.882Z,12.30
2017-11-01T09:42:11.567Z,12.30
2017-11-01T09:44:45.179Z,12.40
2017-11-01T09:47:18.714Z,12.60
2017-11-01T09:49:52.414Z,12.70
2017-11-01T09:52:25.995Z,12.80
2017-11-01T09:54:59.679Z,13.00
2017-11-01T09:57:33.358Z,13.20
2017-11-01T10:00:06.952Z,13.50
2017-11-01T10:02:40.799Z,13.60
2017-11-01T10:05:14.552Z,13.40
2017-11-01T10:07:48.162Z,13.40
2017-11-01T10:10:21.938Z,13.30
2017-11-01T10:12:55.500Z,13.10
2017-11-01T10:15:29.112Z,13.10
2017-11-01T10:18:02.745Z,13.20
2017-11-01T10:20:36.533Z,13.20
2017-11-01T10:23:10.137Z,13.10
2017-11-01T10:25:43.918Z,13.10
2017-11-01T10:28:17.493Z,13.20
2017-11-01T10:30:51.997Z,13.20
2017-11-01T10:33:25.768Z,13.10
2017-11-01T10:35:59.407Z,13.20
2017-11-01T10:38:33.047Z,13.30
2017-11-01T10:41:06.907Z,13.40
2017-11-01T10:43:41.302Z,13.60
2017-11-01T10:46:15.726Z,13.80
2017-11-01T10:48:49.552Z,13.80
2017-11-01T10:51:23.210Z,14.10
2017-11-01T10:53:56.750Z,14.20
2017-11-01T10:56:30.540Z,14.20
2017-11-01T10:59:04.219Z,14.30
2017-11-01T11:01:37.921Z,14.40
2017-11-01T11:04:11.617Z,14.20
2017-11-01T11:06:46.152Z,14.30
2017-11-01T11:09:20.573Z,14.40
2017-11-01T11:11:54.156Z,14.30
2017-11-01T11:14:27.682Z,14.60
2017-11-01T11:17:01.486Z,14.90
2017-11-01T11:19:35.195Z,15.20
2017-11-01T11:22:08.902Z,15.50
2017-11-01T11:24:43.287Z,16.10
2017-11-01T11:27:11.383Z,16.00
2017-11-01T11:29:39.484Z,17.50
2017-11-01T11:32:07.522Z,18.90
2017-11-01T11:34:35.647Z,20.10
2017-11-01T11:37:04.505Z,21.40
2017-11-01T11:39:32.612Z,21.40
2017-11-01T11:42:00.689Z,21.80
2017-11-01T11:44:28.773Z,22.00
2017-11-01T11:46:56.878Z,22.30
2017-11-01T11:49:24.978Z,22.60
2017-11-01T11:51:53.815Z,23.00
2017-11-01T11:54:21.971Z,22.90
2017-11-01T11:56:50.786Z,23.70
2017-11-01T11:59:18.893Z,23.70
2017-11-01T12:01:46.954Z,23.80
2017-11-01T12:04:16.625Z,23.80
2017-11-01T12:06:44.689Z,23.90
2017-11-01T12:09:12.872Z,23.30
2017-11-01T12:11:41.088Z,22.60
2017-11-01T12:14:09.967Z,22.50
2017-11-01T12:16:38.093Z,22.40
2017-11-01T12:19:06.161Z,22.60
2017-11-01T12:21:34.319Z,22.20
2017-11-01T12:24:03.154Z,20.30
2017-11-01T12:26:31.241Z,20.30
2017-11-01T12:28:59.319Z,19.50
2017-11-01T12:31:27.384Z,18.70
2017-11-01T12:33:55.480Z,18.10
2017-11-01T12:36:23.575Z,17.80
2017-11-01T12:38:52.413Z,17.80
2017-11-01T12:41:20.478Z,17.70
2017-11-01T12:43:48.566Z,17.80
2017-11-01T12:46:16.683Z,17.60
2017-11-01T12:48:45.517Z,17.40
2017-11-01T12:51:13.591Z,17.30
2017-11-01T12:53:41.659Z,17.50
2017-11-01T12:56:09.750Z,17.30
2017-11-01T12:58:37.812Z,17.20
2017-11-01T13:01:05.928Z,16.90
2017-11-01T13:03:34.739Z,16.30
2017-11-01T13:06:02.847Z,16.20
2017-11-01T13:08:30.890Z,16.00
2017-11-01T13:10:58.999Z,15.90
2017-11-01T13:13:27.055Z,15.80
2017-11-01T13:15:55.128Z,15.70
2017-11-01T13:18:23.205Z,15.70
2017-11-01T13:20:51.284Z,16.00
2017-11-01T13:23:19.354Z,16.30
2017-11-01T13:25:47.406Z,16.60
2017-11-01T13:28:15.480Z,16.90
2017-11-01T13:30:43.559Z,17.00
2017-11-01T13:33:11.646Z,17.10
2017-11-01T13:35:40.692Z,16.90
2017-11-01T13:38:08.758Z,16.80
2017-11-01T13:40:36.868Z,16.70
2017-11-01T13:43:04.933Z,16.40
2017-11-01T13:45:33.006Z,16.30
2017-11-01T13:48:01.076Z,16.10
2017-11-01T13:50:29.167Z,16.20
2017-11-01T13:52:58.042Z,16.30
2017-11-01T13:55:26.120Z,16.20
2017-11-01T13:57:55.012Z,16.20
2017-11-01T14:00:25.346Z,16.20
2017-11-01T14:02:53.431Z,16.10
2017-11-01T14:05:21.516Z,16.20
2017-11-01T14:07:50.364Z,16.60
2017-11-01T14:10:18.449Z,16.60
2017-11-01T14:12:46.527Z,16.80
2017-11-01T14:15:14.602Z,16.90
2017-11-01T14:17:42.691Z,17.00
2017-11-01T14:20:10.949Z,17.20
2017-11-01T14:22:39.243Z,17.30
2017-11-01T14:27:58.002Z,17.50
2017-11-01T14:30:26.189Z,17.50
2017-11-01T14:32:54.315Z,17.50
2017-11-01T14:35:22.437Z,17.50
2017-11-01T14:41:00.058Z,17.30
2017-11-01T14:43:41.053Z,17.10
2017-11-01T14:46:10.179Z,16.90
2017-11-01T14:48:38.422Z,16.60
2017-11-01T14:51:16.646Z,16.60
2017-11-01T14:53:45.175Z,16.60
2017-11-01T14:56:13.259Z,16.60
2017-11-01T14:58:41.331Z,16.50
2017-11-01T15:01:09.758Z,16.50
2017-11-01T15:03:37.845Z,16.40
2017-11-01T15:06:05.963Z,16.30
2017-11-01T15:08:34.062Z,16.10
2017-11-01T15:11:02.107Z,16.00
2017-11-01T15:13:30.216Z,15.80
2017-11-01T15:15:58.296Z,15.70
2017-11-01T15:18:26.401Z,15.70
2017-11-01T15:20:55.244Z,15.50
2017-11-01T15:23:23.330Z,15.40
2017-11-01T15:25:51.388Z,15.40
2017-11-01T15:28:20.248Z,15.30
2017-11-01T15:30:48.343Z,15.20
2017-11-01T15:33:16.427Z,15.20
2017-11-01T15:35:44.500Z,15.20
2017-11-01T15:38:12.574Z,15.10
2017-11-01T15:40:40.665Z,15.10
2017-11-01T15:43:09.488Z,15.10
2017-11-01T15:45:37.577Z,15.00
2017-11-01T15:48:05.654Z,15.00
2017-11-01T15:50:33.803Z,15.00
2017-11-01T15:53:01.871Z,14.90
2017-11-01T15:55:29.947Z,14.90
2017-11-01T15:57:58.017Z,14.80
2017-11-01T16:00:26.105Z,14.70
2017-11-01T16:02:54.951Z,14.60
2017-11-01T16:05:23.020Z,14.50
2017-11-01T16:07:51.887Z,14.30
2017-11-01T16:10:19.940Z,14.30
2017-11-01T16:12:48.039Z,14.30
2017-11-01T16:15:16.121Z,14.30
2017-11-01T16:17:45.042Z,14.20
2017-11-01T16:20:15.041Z,14.10
2017-11-01T16:22:44.181Z,14.10
2017-11-01T16:25:12.890Z,14.00
2017-11-01T16:27:40.995Z,14.10
2017-11-01T16:30:09.076Z,14.20
2017-11-01T16:32:37.115Z,14.10
2017-11-01T16:35:05.749Z,14.10
2017-11-01T16:37:33.902Z,14.10
2017-11-01T16:40:01.952Z,14.00
2017-11-01T16:42:30.078Z,13.90
2017-11-01T16:44:58.341Z,13.80
2017-11-01T16:47:26.428Z,13.70
2017-11-01T16:49:54.583Z,13.60
2017-11-01T16:52:22.644Z,13.50
2017-11-01T16:57:24.883Z,13.20
2017-11-01T16:59:52.974Z,13.20
2017-11-01T17:02:31.984Z,13.20
2017-11-01T17:05:00.921Z,13.20
2017-11-01T17:07:29.812Z,13.20
2017-11-01T17:09:57.887Z,13.10
2017-11-01T17:12:26.725Z,13.10
2017-11-01T17:14:54.812Z,13.10
2017-11-01T17:17:22.883Z,13.20
2017-11-01T17:19:50.997Z,13.20
2017-11-01T17:22:19.832Z,13.00
2017-11-01T17:24:47.931Z,13.00
2017-11-01T17:27:15.980Z,13.00
2017-11-01T17:29:44.059Z,13.00
2017-11-01T17:32:12.159Z,12.90
2017-11-01T17:34:41.027Z,12.90
2017-11-01T17:37:09.107Z,12.80
2017-11-01T17:39:37.167Z,12.80
2017-11-01T17:42:06.040Z,12.70
2017-11-01T17:44:34.150Z,12.60
2017-11-01T17:47:03.006Z,12.70
2017-11-01T17:49:31.077Z,12.60
2017-11-01T17:51:59.204Z,12.60
2017-11-01T17:54:28.019Z,12.50
2017-11-01T17:56:56.114Z,12.50
2017-11-01T17:59:24.302Z,12.50
2017-11-01T18:01:53.158Z,12.60
2017-11-01T18:04:21.993Z,12.60
2017-11-01T18:06:50.156Z,12.60
2017-11-01T18:09:18.233Z,12.70
2017-11-01T18:11:46.344Z,12.80
2017-11-01T18:14:14.486Z,12.90
2017-11-01T18:16:42.577Z,12.90
2017-11-01T18:19:10.665Z,12.90
2017-11-01T18:21:38.764Z,12.90
2017-11-01T18:24:07.593Z,13.00
2017-11-01T18:26:35.679Z,13.00
2017-11-01T18:29:03.798Z,13.00
2017-11-01T18:31:31.877Z,13.00
2017-11-01T18:33:59.980Z,13.00
2017-11-01T18:36:28.049Z,12.90
2017-11-01T18:38:56.314Z,12.90
2017-11-01T18:41:24.360Z,12.90
2017-11-01T18:43:54.651Z,12.90
2017-11-01T18:46:24.152Z,12.90
2017-11-01T18:48:52.421Z,12.90
2017-11-01T18:51:22.022Z,12.90
2017-11-01T18:53:51.030Z,13.00
2017-11-01T18:56:19.084Z,12.90
2017-11-01T18:58:47.166Z,13.00
2017-11-01T19:01:16.480Z,13.10
2017-11-01T19:03:46.734Z,13.10
2017-11-01T19:06:14.809Z,13.10
2017-11-01T19:08:49.626Z,13.10
2017-11-01T19:11:19.412Z,13.10
2017-11-01T19:13:47.522Z,13.20
2017-11-01T19:16:15.660Z,13.20
2017-11-01T19:18:44.555Z,13.20
2017-11-01T19:21:12.667Z,13.20
2017-11-01T19:23:40.790Z,13.20
2017-11-01T19:26:08.866Z,13.10
2017-11-01T19:28:36.981Z,13.20
2017-11-01T19:31:05.068Z,13.20
2017-11-01T19:33:33.933Z,13.30
2017-11-01T19:36:01.988Z,13.30
2017-11-01T19:38:30.076Z,13.30
2017-11-01T19:40:58.148Z,13.30
2017-11-01T19:43:50.997Z,13.20
2017-11-01T19:46:21.533Z,13.20
2017-11-01T19:48:58.396Z,13.10
2017-11-01T19:51:32.530Z,13.10
2017-11-01T19:54:06.568Z,13.10
2017-11-01T19:56:37.277Z,13.10
2017-11-01T19:59:08.826Z,13.10
2017-11-01T20:01:42.703Z,13.10
2017-11-01T20:04:29.155Z,13.00
2017-11-01T20:06:59.622Z,13.00
2017-11-01T20:09:35.829Z,13.00
2017-11-01T20:12:06.104Z,12.90
2017-11-01T20:14:37.581Z,12.80
2017-11-01T20:17:06.562Z,12.80
2017-11-01T20:19:36.224Z,12.70
2017-11-01T20:22:05.419Z,12.80
2017-11-01T20:24:38.052Z,12.90
2017-11-01T20:29:48.253Z,12.90
2017-11-01T20:32:18.002Z,13.00
2017-11-01T20:34:47.623Z,13.10
2017-11-01T20:37:24.246Z,13.00
2017-11-01T20:39:54.605Z,13.10
2017-11-01T20:42:24.488Z,13.10
2017-11-01T20:44:52.596Z,13.00
2017-11-01T20:47:20.716Z,13.10
2017-11-01T20:49:48.778Z,13.10
2017-11-01T20:52:17.818Z,13.20
2017-11-01T20:54:45.920Z,13.10
2017-11-01T20:57:14.024Z,13.30
2017-11-01T20:59:42.187Z,13.20
2017-11-01T21:02:10.281Z,13.30
2017-11-01T21:04:38.376Z,13.40
2017-11-01T21:07:06.599Z,13.40
2017-11-01T21:09:35.438Z,13.50
2017-11-01T21:12:03.562Z,13.50
2017-11-01T21:14:32.375Z,13.50
2017-11-01T21:17:00.476Z,13.50
2017-11-01T21:19:28.540Z,13.50
2017-11-01T21:21:56.644Z,13.50
2017-11-01T21:24:25.489Z,13.50
2017-11-01T21:26:53.567Z,13.40
2017-11-01T21:29:21.682Z,13.50
2017-11-01T21:31:49.788Z,13.50
2017-11-01T21:34:17.880Z,13.50
2017-11-01T21:36:48.132Z,13.50
2017-11-01T21:39:20.525Z,13.30
2017-11-01T21:41:49.471Z,13.30
2017-11-01T21:44:17.627Z,13.30
2017-11-01T21:46:45.786Z,13.20
2017-11-01T21:49:14.608Z,13.10
2017-11-01T21:51:43.131Z,13.10
2017-11-01T21:54:11.423Z,13.10
2017-11-01T21:56:40.395Z,13.00
2017-11-01T21:59:10.515Z,13.00
2017-11-01T22:01:38.741Z,13.00
2017-11-01T22:04:06.857Z,13.00
2017-11-01T22:06:34.982Z,12.90
2017-11-01T22:09:03.824Z,12.80
2017-11-01T22:11:31.919Z,12.80
2017-11-01T22:14:00.035Z,12.80
2017-11-01T22:16:28.129Z,12.90
2017-11-01T22:18:56.196Z,12.90
2017-11-01T22:21:24.470Z,12.90
2017-11-01T22:23:52.682Z,13.00
2017-11-01T22:26:21.956Z,13.00
2017-11-01T22:28:50.220Z,13.00
2017-11-01T22:31:23.255Z,13.00
2017-11-01T22:33:51.463Z,13.10
2017-11-01T22:36:20.431Z,13.10
2017-11-01T22:38:49.808Z,13.20
2017-11-01T22:41:18.786Z,13.20
2017-11-01T22:43:48.510Z,13.10
2017-11-01T22:46:17.380Z,13.20
2017-11-01T22:48:45.448Z,13.20
2017-11-01T22:51:13.524Z,13.20
2017-11-01T22:53:41.607Z,13.20
2017-11-01T22:56:09.704Z,13.30
2017-11-01T22:58:38.524Z,13.30
2017-11-01T23:01:06.599Z,13.30
2017-11-01T23:03:34.671Z,13.30
2017-11-01T23:06:02.774Z,13.40
2017-11-01T23:08:31.623Z,13.40
2017-11-01T23:10:59.667Z,13.30
2017-11-01T23:13:27.763Z,13.40
2017-11-01T23:15:55.821Z,13.40
2017-11-01T23:18:23.879Z,13.50
2017-11-01T23:20:52.162Z,13.60
2017-11-01T23:23:20.263Z,13.50
2017-11-01T23:25:48.352Z,13.60
2017-11-01T23:28:16.407Z,13.60
2017-11-01T23:30:44.466Z,13.60
2017-11-01T23:33:12.572Z,13.70
2017-11-01T23:35:41.530Z,13.70
2017-11-01T23:38:09.814Z,13.70
2017-11-01T23:40:38.867Z,13.70
2017-11-01T23:43:07.083Z,13.60
2017-11-01T23:45:35.319Z,13.70
2017-11-01T23:48:04.352Z,13.80
2017-11-01T23:50:33.957Z,13.80
2017-11-01T23:53:02.915Z,13.80
2017-11-01T23:55:32.059Z,13.90
2017-11-01T23:58:00.381Z,13.90
